createdAt,value
2022-08-03T00:00:26.531Z,100549.81
2022-08-03T00:02:57.008Z,100553.00
2022-08-03T00:05:23.837Z,100549.38
2022-08-03T00:07:50.661Z,100555.75
2022-08-03T00:10:17.504Z,100554.13
2022-08-03T00:12:44.412Z,100556.94
2022-08-03T00:15:16.529Z,100552.53
2022-08-03T00:17:52.274Z,100546.94
2022-08-03T00:20:20.110Z,100534.88
2022-08-03T00:22:47.041Z,100539.25
2022-08-03T00:25:13.989Z,100541.25
2022-08-03T00:27:40.828Z,100536.06
2022-08-03T00:30:08.385Z,100541.25
2022-08-03T00:32:35.245Z,100534.88
2022-08-03T00:35:08.124Z,100537.28
2022-08-03T00:37:40.970Z,100534.09
2022-08-03T00:40:09.887Z,100533.66
2022-08-03T00:42:46.109Z,100529.28
2022-08-03T00:45:13.020Z,100523.66
2022-08-03T00:47:39.789Z,100529.28
2022-08-03T00:50:06.815Z,100531.28
2022-08-03T00:52:34.601Z,100528.44
2022-08-03T00:55:01.648Z,100536.06
2022-08-03T00:57:30.286Z,100527.19
2022-08-03T00:59:57.281Z,100531.19
2022-08-03T01:02:24.081Z,100526.00
2022-08-03T01:04:50.918Z,100534.44
2022-08-03T01:07:29.061Z,100538.03
2022-08-03T01:09:56.024Z,100536.06
2022-08-03T01:12:29.871Z,100540.88
2022-08-03T01:15:08.826Z,100536.09
2022-08-03T01:17:40.469Z,100541.34
2022-08-03T01:20:10.787Z,100540.53
2022-08-03T01:22:37.773Z,100541.31
2022-08-03T01:25:20.104Z,100538.53
2022-08-03T01:28:05.727Z,100528.09
2022-08-03T01:30:34.014Z,100540.91
2022-08-03T01:33:03.646Z,100538.88
2022-08-03T01:35:38.552Z,100540.50
2022-08-03T01:38:09.592Z,100538.88
2022-08-03T01:40:38.217Z,100538.88
2022-08-03T01:43:06.582Z,100543.72
2022-08-03T01:45:34.503Z,100547.31
2022-08-03T01:48:02.031Z,100548.50
2022-08-03T01:50:30.096Z,100541.72
2022-08-03T01:52:57.922Z,100552.56
2022-08-03T01:55:28.246Z,100540.88
2022-08-03T01:58:04.872Z,100543.25
2022-08-03T02:00:35.691Z,100544.09
2022-08-03T02:03:04.531Z,100538.50
2022-08-03T02:05:32.147Z,100541.69
2022-08-03T02:07:59.751Z,100545.69
2022-08-03T02:10:34.582Z,100544.09
2022-08-03T02:13:04.594Z,100538.88
2022-08-03T02:15:32.978Z,100542.53
2022-08-03T02:18:00.444Z,100547.69
2022-08-03T02:20:27.637Z,100545.66
2022-08-03T02:22:54.631Z,100544.13
2022-08-03T02:25:21.579Z,100545.69
2022-08-03T02:27:56.758Z,100550.47
2022-08-03T02:30:29.139Z,100552.13
2022-08-03T02:32:58.079Z,100543.66
2022-08-03T02:35:26.685Z,100548.03
2022-08-03T02:37:56.898Z,100552.00
2022-08-03T02:40:24.567Z,100546.75
2022-08-03T02:42:53.493Z,100551.19
2022-08-03T02:45:21.202Z,100554.75
2022-08-03T02:47:54.403Z,100545.91
2022-08-03T02:50:22.963Z,100551.97
2022-08-03T02:52:50.191Z,100542.72
2022-08-03T03:12:30.298Z,100553.94
2022-08-03T03:14:57.371Z,100557.38
2022-08-03T03:17:24.756Z,100551.53
2022-08-03T03:19:52.780Z,100559.66
2022-08-03T03:22:22.095Z,100562.16
2022-08-03T03:24:51.838Z,100562.16
2022-08-03T03:27:19.097Z,100566.19
2022-08-03T03:29:48.994Z,100569.78
2022-08-03T03:32:16.355Z,100571.88
2022-08-03T03:34:44.303Z,100574.78
2022-08-03T03:37:11.443Z,100566.38
2022-08-03T03:39:38.521Z,100567.63
2022-08-03T03:42:05.722Z,100572.09
2022-08-03T03:44:32.727Z,100578.47
2022-08-03T03:46:59.835Z,100577.72
2022-08-03T03:49:27.165Z,100583.41
2022-08-03T03:51:55.566Z,100572.19
2022-08-03T03:54:25.434Z,100583.88
2022-08-03T03:56:56.157Z,100579.50
2022-08-03T03:59:23.154Z,100587.16
2022-08-03T04:01:59.193Z,100585.25
2022-08-03T04:04:44.918Z,100585.34
2022-08-03T04:07:30.689Z,100576.16
2022-08-03T04:10:16.363Z,100589.34
2022-08-03T04:12:50.022Z,100585.59
2022-08-03T04:15:21.633Z,100586.91
2022-08-03T04:17:50.721Z,100586.53
2022-08-03T04:20:20.851Z,100589.31
2022-08-03T04:22:51.522Z,100592.28
2022-08-03T04:25:20.482Z,100588.88
2022-08-03T04:28:29.987Z,100586.44
2022-08-03T04:30:47.635Z,100589.66
2022-08-03T04:33:17.699Z,100589.50
2022-08-03T04:36:01.033Z,100592.13
2022-08-03T04:38:36.849Z,100589.09
2022-08-03T04:41:05.028Z,100590.19
2022-08-03T04:43:34.721Z,100586.75
2022-08-03T04:46:03.061Z,100594.00
2022-08-03T04:48:30.459Z,100588.03
2022-08-03T04:50:57.977Z,100595.44
2022-08-03T04:53:24.938Z,100593.72
2022-08-03T04:55:51.961Z,100588.09
2022-08-03T04:58:18.898Z,100589.22
2022-08-03T05:00:45.947Z,100594.72
2022-08-03T05:03:20.316Z,100591.25
2022-08-03T05:06:01.997Z,100596.63
2022-08-03T05:08:46.429Z,100596.09
2022-08-03T05:11:16.372Z,100597.34
2022-08-03T05:13:44.968Z,100597.28
2022-08-03T05:16:14.058Z,100592.41
2022-08-03T05:18:42.242Z,100596.78
2022-08-03T05:21:10.520Z,100595.81
2022-08-03T05:23:38.027Z,100603.81
2022-08-03T05:26:05.128Z,100609.53
2022-08-03T05:28:32.063Z,100615.16
2022-08-03T05:30:59.021Z,100615.06
2022-08-03T05:33:26.058Z,100610.84
2022-08-03T05:35:57.751Z,100621.78
2022-08-03T05:38:34.882Z,100623.03
2022-08-03T05:41:21.459Z,100612.44
2022-08-03T05:43:51.032Z,100625.25
2022-08-03T05:46:18.310Z,100617.22
2022-08-03T05:48:45.270Z,100621.03
2022-08-03T05:51:12.505Z,100616.78
2022-08-03T05:53:43.285Z,100618.34
2022-08-03T05:56:15.015Z,100627.66
2022-08-03T05:58:44.287Z,100628.16
2022-08-03T06:01:11.471Z,100627.13
2022-08-03T06:03:38.394Z,100628.84
2022-08-03T06:06:05.391Z,100626.09
2022-08-03T06:08:33.112Z,100616.19
2022-08-03T06:11:00.205Z,100624.16
2022-08-03T06:13:27.151Z,100614.91
2022-08-03T06:15:54.065Z,100618.66
2022-08-03T06:18:21.324Z,100621.97
2022-08-03T06:20:49.423Z,100622.75
2022-08-03T06:23:18.984Z,100625.59
2022-08-03T06:25:47.949Z,100616.47
2022-08-03T06:28:42.559Z,100624.03
2022-08-03T06:31:03.746Z,100627.19
2022-08-03T06:34:30.906Z,100628.91
2022-08-03T06:36:20.919Z,100625.53
2022-08-03T06:38:48.205Z,100616.00
2022-08-03T06:41:15.235Z,100618.16
2022-08-03T06:44:03.691Z,100619.13
2022-08-03T06:46:30.286Z,100615.22
2022-08-03T06:48:57.316Z,100621.28
2022-08-03T06:52:04.085Z,100619.41
2022-08-03T06:54:12.399Z,100626.41
2022-08-03T06:56:39.434Z,100616.44
2022-08-03T06:59:06.298Z,100616.22
2022-08-03T07:01:33.327Z,100620.66
2022-08-03T07:04:01.257Z,100629.56
2022-08-03T07:06:28.241Z,100614.06
2022-08-03T07:08:59.218Z,100619.28
2022-08-03T07:11:28.772Z,100617.91
2022-08-03T07:13:56.561Z,100614.66
2022-08-03T07:16:23.508Z,100623.94
2022-08-03T07:18:50.393Z,100621.47
2022-08-03T07:21:17.373Z,100620.28
2022-08-03T07:23:44.458Z,100627.03
2022-08-03T07:26:11.883Z,100618.09
2022-08-03T07:28:38.858Z,100631.88
2022-08-03T07:31:05.783Z,100625.56
2022-08-03T07:33:32.738Z,100630.63
2022-08-03T07:35:59.630Z,100637.16
2022-08-03T07:38:26.662Z,100630.81
2022-08-03T07:40:54.294Z,100639.84
2022-08-03T07:43:21.269Z,100632.63
2022-08-03T07:45:48.258Z,100629.44
2022-08-03T07:48:15.257Z,100642.03
2022-08-03T07:50:42.234Z,100636.00
2022-08-03T07:53:09.173Z,100643.94
2022-08-03T07:55:36.130Z,100636.38
2022-08-03T07:58:06.216Z,100634.84
2022-08-03T08:00:34.065Z,100646.75
2022-08-03T08:03:01.135Z,100641.75
2022-08-03T08:05:28.307Z,100649.84
2022-08-03T08:07:55.809Z,100657.16
2022-08-03T08:10:22.994Z,100649.84
2022-08-03T08:12:50.475Z,100640.75
2022-08-03T08:15:17.485Z,100645.59
2022-08-03T08:17:46.423Z,100654.88
2022-08-03T08:20:27.744Z,100652.06
2022-08-03T08:23:01.235Z,100643.31
2022-08-03T08:25:31.142Z,100654.53
2022-08-03T08:28:30.931Z,100647.41
2022-08-03T08:30:50.226Z,100638.78
2022-08-03T08:33:23.001Z,100639.16
2022-08-03T08:35:54.321Z,100640.63
2022-08-03T08:38:22.226Z,100643.63
2022-08-03T08:40:50.644Z,100643.56
2022-08-03T08:43:17.610Z,100639.72
2022-08-03T08:45:45.285Z,100643.16
2022-08-03T08:48:14.035Z,100643.09
2022-08-03T08:50:41.725Z,100638.69
2022-08-03T08:53:18.185Z,100644.03
2022-08-03T08:55:59.116Z,100643.63
2022-08-03T08:58:38.913Z,100645.22
2022-08-03T09:01:06.301Z,100641.72
2022-08-03T09:03:35.311Z,100635.47
2022-08-03T09:06:03.355Z,100637.84
2022-08-03T09:08:32.171Z,100639.00
2022-08-03T09:10:59.745Z,100643.75
2022-08-03T09:13:26.891Z,100637.25
2022-08-03T09:16:29.295Z,100637.81
2022-08-03T09:18:56.407Z,100633.59
2022-08-03T09:21:32.223Z,100638.94
2022-08-03T09:24:04.788Z,100628.59
2022-08-03T09:26:35.515Z,100628.63
2022-08-03T09:29:14.759Z,100625.31
2022-08-03T09:31:45.447Z,100634.25
2022-08-03T09:34:17.012Z,100635.38
2022-08-03T09:36:46.817Z,100644.16
2022-08-03T09:39:16.257Z,100635.66
2022-08-03T09:42:03.976Z,100638.94
2022-08-03T09:45:00.429Z,100648.97
2022-08-03T09:47:36.783Z,100642.97
2022-08-03T09:50:13.006Z,100630.13
2022-08-03T09:52:51.905Z,100629.06
2022-08-03T09:56:34.727Z,100631.00
2022-08-03T09:58:12.857Z,100629.22
2022-08-03T10:01:04.520Z,100633.00
2022-08-03T10:04:03.288Z,100640.78
2022-08-03T10:06:28.816Z,100629.28
2022-08-03T10:09:07.312Z,100637.88
2022-08-03T10:11:41.614Z,100628.91
2022-08-03T10:14:11.797Z,100638.25
2022-08-03T10:16:40.325Z,100644.47
2022-08-03T10:19:09.371Z,100643.78
2022-08-03T10:21:38.838Z,100636.28
2022-08-03T10:24:08.442Z,100634.88
2022-08-03T10:26:39.312Z,100625.47
2022-08-03T10:29:25.366Z,100637.22
2022-08-03T10:31:58.407Z,100630.38
2022-08-03T10:34:35.178Z,100621.88
2022-08-03T10:37:08.519Z,100629.47
2022-08-03T10:39:36.622Z,100626.69
2022-08-03T10:42:06.049Z,100612.53
2022-08-03T10:44:42.870Z,100620.72
2022-08-03T10:47:10.949Z,100630.47
2022-08-03T10:49:38.603Z,100634.09
2022-08-03T10:52:12.974Z,100640.78
2022-08-03T10:55:12.137Z,100632.63
2022-08-03T10:57:46.431Z,100628.69
2022-08-03T11:00:21.441Z,100605.81
2022-08-03T11:03:11.999Z,100613.50
2022-08-03T11:05:48.365Z,100619.38
2022-08-03T11:08:28.149Z,100614.88
2022-08-03T11:11:01.690Z,100606.50
2022-08-03T11:13:33.629Z,100610.19
2022-08-03T11:16:06.556Z,100621.91
2022-08-03T11:18:34.013Z,100607.34
2022-08-03T11:21:01.311Z,100614.72
2022-08-03T11:24:03.994Z,100608.78
2022-08-03T11:26:33.793Z,100607.50
2022-08-03T11:29:29.899Z,100584.72
2022-08-03T11:31:57.708Z,100610.25
2022-08-03T11:34:25.865Z,100595.72
2022-08-03T11:37:23.001Z,100604.28
2022-08-03T11:39:53.461Z,100604.00
2022-08-03T11:42:45.270Z,100596.63
2022-08-03T11:45:12.622Z,100592.31
2022-08-03T11:47:51.148Z,100608.03
2022-08-03T11:50:20.061Z,100582.16
2022-08-03T11:52:47.920Z,100585.09
2022-08-03T11:55:17.486Z,100596.88
2022-08-03T11:59:10.798Z,100608.91
2022-08-03T12:00:34.360Z,100593.19
2022-08-03T12:03:04.831Z,100586.47
2022-08-03T12:05:50.991Z,100590.16
2022-08-03T12:08:27.925Z,100591.69
2022-08-03T12:10:57.461Z,100599.25
2022-08-03T12:14:35.719Z,100591.16
2022-08-03T12:16:23.917Z,100588.50
2022-08-03T12:19:06.901Z,100577.09
2022-08-03T12:21:34.178Z,100591.63
2022-08-03T12:24:03.791Z,100586.75
2022-08-03T12:26:43.010Z,100572.41
2022-08-03T12:29:26.429Z,100595.09
2022-08-03T12:31:53.654Z,100584.91
2022-08-03T12:34:21.051Z,100592.28
2022-08-03T12:36:59.370Z,100583.16
2022-08-03T12:39:30.838Z,100580.56
2022-08-03T12:41:58.446Z,100581.59
2022-08-03T12:44:36.422Z,100581.34
2022-08-03T12:47:04.677Z,100576.59
2022-08-03T12:49:49.851Z,100563.97
2022-08-03T12:52:18.864Z,100576.59
2022-08-03T12:55:00.872Z,100574.94
2022-08-03T12:57:43.461Z,100583.31
2022-08-03T13:00:21.214Z,100574.00
2022-08-03T13:03:26.600Z,100579.66
2022-08-03T13:05:47.310Z,100582.53
2022-08-03T13:08:25.173Z,100574.09
2022-08-03T13:10:52.148Z,100587.00
2022-08-03T13:13:20.906Z,100581.19
2022-08-03T13:15:48.338Z,100573.94
2022-08-03T13:18:17.246Z,100577.19
2022-08-03T13:20:44.654Z,100568.75
2022-08-03T13:23:15.475Z,100566.66
2022-08-03T13:25:55.567Z,100575.81
2022-08-03T13:28:23.153Z,100571.59
2022-08-03T13:30:50.173Z,100581.88
2022-08-03T13:33:17.503Z,100575.41
2022-08-03T13:35:44.538Z,100578.09
2022-08-03T13:38:11.755Z,100576.94
2022-08-03T13:40:41.847Z,100578.94
2022-08-03T13:43:09.150Z,100590.84
2022-08-03T13:45:36.369Z,100586.16
2022-08-03T13:48:03.406Z,100581.59
2022-08-03T13:50:31.540Z,100572.78
2022-08-03T13:52:58.731Z,100581.34
2022-08-03T13:55:25.995Z,100584.91
2022-08-03T13:58:04.379Z,100581.41
2022-08-03T14:00:40.032Z,100588.69
2022-08-03T14:03:14.137Z,100579.03
2022-08-03T14:05:43.097Z,100581.00
2022-08-03T14:08:10.722Z,100585.44
2022-08-03T14:10:40.150Z,100582.91
2022-08-03T14:13:07.746Z,100595.28
2022-08-03T14:15:37.641Z,100585.03
2022-08-03T14:18:06.883Z,100582.28
2022-08-03T14:20:37.338Z,100602.81
2022-08-03T14:23:06.997Z,100578.41
2022-08-03T14:25:43.518Z,100579.34
2022-08-03T14:28:18.570Z,100595.91
2022-08-03T14:30:46.165Z,100590.63
2022-08-03T14:33:13.172Z,100585.84
2022-08-03T14:35:40.620Z,100602.63
2022-08-03T14:38:07.573Z,100591.91
2022-08-03T14:40:34.530Z,100600.50
2022-08-03T14:43:02.568Z,100600.94
2022-08-03T14:45:29.592Z,100594.47
2022-08-03T14:50:34.711Z,100585.50
2022-08-03T14:50:50.189Z,100589.16
2022-08-03T14:53:18.457Z,100589.63
2022-08-03T14:55:49.546Z,100581.66
2022-08-03T15:14:05.056Z,100585.72
2022-08-03T15:16:36.056Z,100579.56
2022-08-03T15:19:03.089Z,100581.47
2022-08-03T15:21:50.013Z,100583.25
2022-08-03T15:24:18.201Z,100576.31
2022-08-03T15:26:45.176Z,100571.59
2022-08-03T15:30:08.168Z,100574.13
2022-08-03T15:32:00.723Z,100577.22
2022-08-03T15:34:27.674Z,100572.38
2022-08-03T15:36:54.615Z,100577.34
2022-08-03T15:39:21.672Z,100583.34
2022-08-03T15:41:48.686Z,100588.28
2022-08-03T15:44:19.386Z,100579.03
2022-08-03T15:46:46.379Z,100574.63
2022-08-03T15:49:13.598Z,100578.31
2022-08-03T15:51:40.535Z,100565.78
2022-08-03T15:54:07.628Z,100575.84
2022-08-03T15:56:34.586Z,100571.84
2022-08-03T15:59:13.414Z,100581.66
2022-08-03T16:01:41.735Z,100575.59
2022-08-03T16:04:08.703Z,100585.63
2022-08-03T16:06:36.603Z,100573.78
2022-08-03T16:09:23.803Z,100576.69
2022-08-03T16:11:53.538Z,100569.47
2022-08-03T16:14:32.590Z,100572.47
2022-08-03T16:17:03.197Z,100576.94
2022-08-03T16:19:30.141Z,100576.53
2022-08-03T16:21:57.227Z,100576.56
2022-08-03T16:24:27.852Z,100570.09
2022-08-03T16:26:56.040Z,100575.75
2022-08-03T16:29:23.847Z,100580.91
2022-08-03T16:31:52.304Z,100572.09
2022-08-03T16:34:19.994Z,100578.25
2022-08-03T16:36:46.944Z,100579.88
2022-08-03T16:39:13.947Z,100574.63
2022-08-03T16:42:00.731Z,100588.75
2022-08-03T16:44:31.445Z,100577.47
2022-08-03T16:46:59.218Z,100573.47
2022-08-03T16:49:54.065Z,100574.66
2022-08-03T16:52:13.379Z,100587.63
2022-08-03T16:54:40.755Z,100590.81
2022-08-03T16:57:08.635Z,100588.81
2022-08-03T16:59:36.706Z,100584.81
2022-08-03T17:02:10.102Z,100593.25
2022-08-03T17:04:40.200Z,100588.50
2022-08-03T17:07:08.956Z,100585.72
2022-08-03T17:09:38.726Z,100590.59
2022-08-03T17:12:07.629Z,100581.72
2022-08-03T17:14:39.550Z,100586.16
2022-08-03T17:17:16.428Z,100588.63
2022-08-03T17:19:47.221Z,100587.81
2022-08-03T17:22:18.534Z,100591.06
2022-08-03T17:24:53.550Z,100589.47
2022-08-03T17:28:48.845Z,100587.44
2022-08-03T17:30:16.039Z,100592.31
2022-08-03T17:32:56.758Z,100593.91
2022-08-03T17:35:34.456Z,100592.69
2022-08-03T17:38:06.630Z,100591.06
2022-08-03T17:40:37.914Z,100593.50
2022-08-03T17:43:44.023Z,100596.34
2022-08-03T17:45:54.977Z,100594.72
2022-08-03T17:48:25.055Z,100600.41
2022-08-03T17:51:17.266Z,100607.25
2022-08-03T17:53:52.970Z,100608.47
2022-08-03T17:56:45.170Z,100610.50
2022-08-03T17:59:51.075Z,100610.53
2022-08-03T18:02:54.210Z,100611.72
2022-08-03T18:06:10.616Z,100617.34
2022-08-03T18:08:21.268Z,100621.13
2022-08-03T18:10:56.660Z,100622.06
2022-08-03T18:13:59.264Z,100616.91
2022-08-03T18:16:30.594Z,100622.56
2022-08-03T18:19:00.945Z,100628.19
2022-08-03T18:22:02.859Z,100627.34
2022-08-03T18:24:29.348Z,100620.47
2022-08-03T18:26:59.057Z,100621.69
2022-08-03T18:29:29.899Z,100621.69
2022-08-03T18:32:03.771Z,100626.09
2022-08-03T18:34:34.534Z,100630.13
2022-08-03T18:37:07.190Z,100632.94
2022-08-03T18:39:38.910Z,100623.31
2022-08-03T18:42:19.539Z,100632.19
2022-08-03T18:44:53.461Z,100628.97
2022-08-03T18:47:52.011Z,100628.97
2022-08-03T18:50:34.821Z,100626.59
2022-08-03T18:54:02.754Z,100635.88
2022-08-03T18:56:48.391Z,100640.28
2022-08-03T18:59:29.969Z,100634.28
2022-08-03T19:02:06.118Z,100633.06
2022-08-03T19:04:36.934Z,100643.16
2022-08-03T19:07:11.200Z,100659.66
2022-08-03T19:09:48.426Z,100654.44
2022-08-03T19:12:30.916Z,100654.44
2022-08-03T19:15:10.388Z,100655.66
2022-08-03T19:17:53.273Z,100656.50
2022-08-03T19:20:22.399Z,100664.94
2022-08-03T19:22:53.483Z,100655.28
2022-08-03T19:25:35.124Z,100654.06
2022-08-03T19:28:06.201Z,100654.91
2022-08-03T19:30:39.677Z,100657.69
2022-08-03T19:33:10.625Z,100651.31
2022-08-03T19:38:33.561Z,100651.31
2022-08-03T19:41:05.800Z,100655.31
2022-08-03T19:43:49.380Z,100650.06
2022-08-03T19:46:31.660Z,100656.91
2022-08-03T19:49:21.176Z,100652.09
2022-08-03T19:52:01.659Z,100660.53
2022-08-03T19:54:54.170Z,100663.75
2022-08-03T19:57:24.876Z,100655.28
2022-08-03T19:59:53.982Z,100667.78
2022-08-03T20:02:26.510Z,100652.09
2022-08-03T20:04:57.295Z,100654.09
2022-08-03T20:07:26.357Z,100663.38
2022-08-03T20:09:56.606Z,100658.94
2022-08-03T20:15:13.857Z,100658.53
2022-08-03T20:17:55.944Z,100659.34
2022-08-03T20:20:33.617Z,100659.34
2022-08-03T20:23:06.856Z,100661.38
2022-08-03T20:25:48.957Z,100661.75
2022-08-03T20:28:50.205Z,100658.13
2022-08-03T20:31:21.655Z,100658.13
2022-08-03T20:33:51.209Z,100658.50
2022-08-03T20:36:18.811Z,100662.09
2022-08-03T20:38:47.839Z,100663.28
2022-08-03T20:41:18.874Z,100656.84
2022-08-03T20:43:49.422Z,100655.63
2022-08-03T20:46:32.890Z,100652.81
2022-08-03T20:49:06.458Z,100649.22
2022-08-03T20:51:49.698Z,100646.78
2022-08-03T20:54:31.290Z,100651.97
2022-08-03T20:57:04.377Z,100662.03
2022-08-03T20:59:50.875Z,100656.03
2022-08-03T21:02:30.273Z,100651.16
2022-08-03T21:05:08.473Z,100657.59
2022-08-03T21:08:04.920Z,100659.97
2022-08-03T21:10:35.792Z,100665.59
2022-08-03T21:13:03.678Z,100658.13
2022-08-03T21:13:08.339Z,100654.91
2022-08-03T21:16:06.433Z,100653.09
2022-08-03T21:18:45.146Z,100648.66
2022-08-03T21:21:16.524Z,100657.50
2022-08-03T21:23:48.619Z,100658.25
2022-08-03T21:26:19.291Z,100654.63
2022-08-03T21:28:48.435Z,100655.06
2022-08-03T21:31:23.759Z,100664.31
2022-08-03T21:33:57.928Z,100663.84
2022-08-03T21:36:27.956Z,100673.91
2022-08-03T21:38:57.468Z,100660.66
2022-08-03T21:41:26.703Z,100659.06
2022-08-03T21:43:53.720Z,100660.25
2022-08-03T21:46:21.950Z,100665.47
2022-08-03T21:48:55.450Z,100666.28
2022-08-03T21:51:26.040Z,100666.59
2022-08-03T21:54:03.578Z,100666.66
2022-08-03T21:57:01.104Z,100664.97
2022-08-03T21:59:28.369Z,100665.78
2022-08-03T22:01:58.660Z,100668.59
2022-08-03T22:04:54.968Z,100660.56
2022-08-03T22:07:15.243Z,100665.34
2022-08-03T22:09:51.125Z,100671.31
2022-08-03T22:12:22.793Z,100670.56
2022-08-03T22:15:00.554Z,100663.69
2022-08-03T22:17:55.652Z,100667.66
2022-08-03T22:20:17.531Z,100661.19
2022-08-03T22:22:50.181Z,100658.78
2022-08-03T22:25:27.497Z,100660.78
2022-08-03T22:27:55.509Z,100665.56
2022-08-03T22:30:22.801Z,100658.31
2022-08-03T22:32:53.847Z,100659.94
2022-08-03T22:35:24.089Z,100656.72
2022-08-03T22:37:53.987Z,100662.34
2022-08-03T22:40:21.589Z,100655.91
2022-08-03T22:42:52.585Z,100653.44
2022-08-03T22:46:06.947Z,100650.25
2022-08-03T22:48:08.550Z,100657.84
2022-08-03T22:50:36.007Z,100653.81
2022-08-03T22:53:03.640Z,100655.44
2022-08-03T22:55:31.584Z,100651.84
2022-08-03T22:57:58.654Z,100649.34
2022-08-03T23:00:25.836Z,100654.59
2022-08-03T23:02:55.374Z,100645.00
2022-08-03T23:06:02.592Z,100654.16
2022-08-03T23:08:22.974Z,100652.56
2022-08-03T23:10:51.459Z,100647.38
2022-08-03T23:13:24.176Z,100653.34
2022-08-03T23:16:01.771Z,100649.44
2022-08-03T23:18:37.062Z,100648.19
2022-08-03T23:21:06.109Z,100645.41
2022-08-03T23:23:44.181Z,100666.66
2022-08-03T23:26:13.429Z,100649.44
2022-08-03T23:28:45.334Z,100638.97
2022-08-03T23:31:14.632Z,100645.00
2022-08-03T23:33:44.755Z,100638.13
2022-08-03T23:36:30.175Z,100646.56
2022-08-03T23:39:02.405Z,100632.06
2022-08-03T23:41:30.728Z,100640.03
2022-08-03T23:44:01.019Z,100631.66
2022-08-03T23:46:30.553Z,100637.25
2022-08-03T23:49:00.474Z,100639.63
2022-08-03T23:51:34.843Z,100636.00
2022-08-03T23:54:40.954Z,100642.88
2022-08-03T23:57:09.530Z,100633.19
